createdAt,value
2019-04-21T00:01:22.750Z,14.30
2019-04-21T00:03:34.779Z,14.30
2019-04-21T00:05:52.937Z,14.20
2019-04-21T00:08:03.678Z,14.20
2019-04-21T00:10:09.081Z,14.30
2019-04-21T00:12:07.451Z,14.20
2019-04-21T00:14:05.629Z,14.10
2019-04-21T00:16:04.913Z,14.20
2019-04-21T00:18:08.895Z,14.10
2019-04-21T00:20:28.391Z,14.10
2019-04-21T00:22:34.290Z,13.90
2019-04-21T00:24:41.252Z,14.00
2019-04-21T00:26:53.179Z,14.00
2019-04-21T00:29:04.001Z,14.00
2019-04-21T00:31:00.562Z,13.80
2019-04-21T00:33:00.183Z,13.40
2019-04-21T00:35:00.906Z,13.40
2019-04-21T00:37:12.118Z,13.40
2019-04-21T00:39:41.557Z,13.50
2019-04-21T00:41:39.879Z,13.40
2019-04-21T00:43:38.918Z,13.40
2019-04-21T00:45:38.764Z,13.30
2019-04-21T00:47:51.054Z,13.10
2019-04-21T00:50:02.021Z,13.30
2019-04-21T00:52:11.633Z,13.30
2019-04-21T00:54:27.426Z,13.30
2019-04-21T00:56:21.707Z,13.20
2019-04-21T01:00:36.404Z,13.20
2019-04-21T01:02:48.557Z,13.30
2019-04-21T01:04:49.586Z,13.50
2019-04-21T01:06:55.638Z,13.70
2019-04-21T01:09:00.993Z,13.60
2019-04-21T01:10:52.990Z,13.30
2019-04-21T01:13:09.628Z,13.10
2019-04-21T01:15:22.677Z,12.80
2019-04-21T01:17:21.807Z,13.00
2019-04-21T01:19:20.915Z,12.90
2019-04-21T01:21:14.435Z,12.90
2019-04-21T01:23:14.793Z,12.70
2019-04-21T01:25:27.418Z,13.00
2019-04-21T01:27:45.608Z,13.20
2019-04-21T01:29:53.106Z,12.80
2019-04-21T01:31:57.323Z,12.90
2019-04-21T01:34:05.617Z,13.10
2019-04-21T01:36:03.837Z,13.20
2019-04-21T01:38:14.236Z,13.20
2019-04-21T01:40:27.609Z,13.20
2019-04-21T01:42:21.029Z,13.30
2019-04-21T01:44:38.790Z,13.30
2019-04-21T01:46:30.986Z,13.10
2019-04-21T01:48:34.187Z,12.80
2019-04-21T01:50:41.185Z,12.80
2019-04-21T01:52:58.444Z,12.80
2019-04-21T01:55:18.429Z,12.70
2019-04-21T01:57:24.347Z,12.50
2019-04-21T01:59:26.951Z,12.30
2019-04-21T02:01:46.088Z,12.10
2019-04-21T02:03:55.932Z,12.00
2019-04-21T02:05:54.819Z,12.10
2019-04-21T02:07:56.511Z,12.30
2019-04-21T02:10:05.173Z,12.30
2019-04-21T02:12:10.527Z,12.40
2019-04-21T02:14:17.588Z,12.50
2019-04-21T02:16:18.541Z,12.70
2019-04-21T02:18:23.152Z,12.90
2019-04-21T02:20:17.968Z,13.00
2019-04-21T02:22:45.897Z,13.00
2019-04-21T02:24:49.895Z,13.00
2019-04-21T02:26:47.166Z,12.80
2019-04-21T02:28:55.583Z,12.80
2019-04-21T02:31:15.404Z,12.90
2019-04-21T02:33:13.729Z,12.90
2019-04-21T02:35:21.127Z,12.90
2019-04-21T02:37:38.351Z,12.90
2019-04-21T02:43:38.454Z,13.20
2019-04-21T02:48:02.247Z,12.90
2019-04-21T02:49:59.640Z,12.90
2019-04-21T02:52:03.407Z,12.90
2019-04-21T02:58:35.202Z,12.50
2019-04-21T03:00:32.896Z,12.60
2019-04-21T03:02:54.723Z,12.60
2019-04-21T03:09:32.120Z,11.90
2019-04-21T03:11:40.238Z,12.00
2019-04-21T03:13:48.741Z,12.00
2019-04-21T03:16:11.906Z,12.00
2019-04-21T03:18:00.309Z,11.80
2019-04-21T03:20:03.047Z,11.70
2019-04-21T03:22:20.004Z,11.70
2019-04-21T03:24:08.074Z,11.60
2019-04-21T03:28:22.587Z,11.90
2019-04-21T03:30:55.824Z,12.20
2019-04-21T03:33:16.343Z,12.30
2019-04-21T03:36:57.938Z,12.00
2019-04-21T03:38:49.137Z,12.00
2019-04-21T03:40:47.512Z,12.10
2019-04-21T03:47:15.448Z,12.30
2019-04-21T03:49:32.523Z,12.30
2019-04-21T03:53:31.395Z,12.40
2019-04-21T03:58:02.068Z,12.30
2019-04-21T03:59:45.594Z,12.40
2019-04-21T04:02:24.380Z,12.30
2019-04-21T04:06:58.830Z,11.80
2019-04-21T04:11:23.440Z,11.60
2019-04-21T04:13:20.391Z,11.50
2019-04-21T04:15:31.452Z,11.40
2019-04-21T04:17:26.674Z,11.50
2019-04-21T04:19:44.819Z,11.70
2019-04-21T04:23:55.842Z,11.70
2019-04-21T04:25:53.142Z,11.00
2019-04-21T04:30:08.083Z,11.20
2019-04-21T04:32:08.005Z,11.30
2019-04-21T04:34:18.686Z,11.50
2019-04-21T04:36:30.433Z,11.80
2019-04-21T04:38:33.745Z,11.90
2019-04-21T04:42:56.893Z,11.80
2019-04-21T04:45:17.641Z,11.80
2019-04-21T04:49:23.721Z,11.90
2019-04-21T04:51:23.014Z,11.90
2019-04-21T04:53:31.094Z,11.80
2019-04-21T04:55:33.879Z,11.80
2019-04-21T04:59:42.418Z,11.50
2019-04-21T05:02:00.197Z,11.70
2019-04-21T05:04:10.150Z,11.40
2019-04-21T05:08:42.376Z,11.50
2019-04-21T05:10:41.789Z,11.50
2019-04-21T05:21:03.581Z,11.10
2019-04-21T05:22:58.315Z,11.30
2019-04-21T05:24:59.456Z,11.30
2019-04-21T05:27:03.443Z,11.50
2019-04-21T05:29:05.223Z,11.70
2019-04-21T05:31:43.073Z,11.80
2019-04-21T05:33:59.038Z,11.90
2019-04-21T05:36:04.756Z,11.50
2019-04-21T05:38:11.688Z,11.50
2019-04-21T05:40:10.233Z,11.80
2019-04-21T05:42:11.033Z,11.80
2019-04-21T05:44:36.591Z,11.10
2019-04-21T05:46:35.631Z,11.60
2019-04-21T05:48:48.404Z,11.80
2019-04-21T05:50:46.583Z,11.80
2019-04-21T05:52:49.720Z,11.90
2019-04-21T05:55:03.975Z,12.00
2019-04-21T05:57:05.197Z,12.00
2019-04-21T05:59:07.748Z,12.30
2019-04-21T06:01:31.380Z,12.20
2019-04-21T06:03:30.709Z,12.40
2019-04-21T06:07:41.056Z,12.80
2019-04-21T06:09:54.230Z,12.90
2019-04-21T06:11:51.615Z,13.00
2019-04-21T06:16:03.479Z,13.30
2019-04-21T06:18:13.939Z,13.60
2019-04-21T06:20:17.169Z,13.70
2019-04-21T06:22:16.529Z,13.70
2019-04-21T06:24:26.865Z,13.70
2019-04-21T06:26:51.695Z,13.90
2019-04-21T06:28:40.051Z,13.90
2019-04-21T06:30:54.924Z,14.10
2019-04-21T06:37:23.079Z,14.60
2019-04-21T06:41:21.596Z,14.70
2019-04-21T06:43:41.711Z,14.90
2019-04-21T06:45:37.732Z,15.00
2019-04-21T06:49:41.206Z,15.20
2019-04-21T06:51:43.220Z,15.40
2019-04-21T06:53:59.765Z,15.40
2019-04-21T06:56:01.832Z,15.50
2019-04-21T06:58:02.144Z,15.70
2019-04-21T07:00:06.425Z,15.80
2019-04-21T07:02:35.247Z,15.80
2019-04-21T07:04:22.320Z,15.90
2019-04-21T07:06:30.556Z,16.00
2019-04-21T07:08:34.594Z,16.10
2019-04-21T07:10:31.833Z,16.20
2019-04-21T07:12:42.949Z,16.40
2019-04-21T07:14:44.086Z,16.50
2019-04-21T07:19:09.788Z,16.50
2019-04-21T07:21:04.438Z,16.30
2019-04-21T07:23:09.335Z,16.40
2019-04-21T07:25:18.266Z,16.40
2019-04-21T07:27:22.214Z,16.60
2019-04-21T07:29:28.668Z,16.90
2019-04-21T07:31:31.930Z,16.90
2019-04-21T07:35:37.457Z,16.80
2019-04-21T07:37:51.258Z,17.00
2019-04-21T07:39:52.778Z,17.00
2019-04-21T07:41:56.794Z,17.30
2019-04-21T07:43:55.255Z,17.40
2019-04-21T07:45:58.506Z,17.10
2019-04-21T07:48:19.087Z,17.30
2019-04-21T07:50:46.376Z,17.70
2019-04-21T07:53:01.043Z,17.90
2019-04-21T07:55:15.358Z,17.60
2019-04-21T07:56:52.414Z,17.20
2019-04-21T07:59:12.818Z,17.30
2019-04-21T08:01:19.903Z,17.70
2019-04-21T08:03:24.324Z,17.80
2019-04-21T08:05:27.992Z,18.10
2019-04-21T08:07:41.779Z,18.10
2019-04-21T08:09:42.297Z,18.20
2019-04-21T08:11:44.257Z,18.30
2019-04-21T08:13:58.576Z,18.40
2019-04-21T08:15:58.315Z,18.10
2019-04-21T08:18:04.754Z,18.20
2019-04-21T08:20:09.250Z,18.40
2019-04-21T08:22:22.627Z,18.50
2019-04-21T08:24:19.862Z,18.60
2019-04-21T08:26:24.349Z,18.50
2019-04-21T08:28:35.469Z,18.50
2019-04-21T08:30:36.492Z,18.70
2019-04-21T08:32:57.324Z,18.60
2019-04-21T08:35:02.315Z,18.50
2019-04-21T08:36:51.111Z,18.60
2019-04-21T08:39:01.641Z,18.70
2019-04-21T08:43:08.834Z,18.80
2019-04-21T08:45:22.010Z,18.80
2019-04-21T08:47:25.640Z,18.90
2019-04-21T08:49:26.545Z,18.70
2019-04-21T08:51:33.085Z,18.40
2019-04-21T08:53:41.142Z,18.40
2019-04-21T08:56:12.386Z,18.50
2019-04-21T08:58:17.471Z,18.80
2019-04-21T09:00:21.888Z,19.20
2019-04-21T09:02:29.761Z,19.00
2019-04-21T09:04:29.049Z,19.30
2019-04-21T09:06:54.097Z,19.40
2019-04-21T09:08:39.644Z,19.50
2019-04-21T09:10:47.363Z,19.60
2019-04-21T09:12:51.744Z,19.60
2019-04-21T09:14:54.202Z,19.50
2019-04-21T09:17:03.324Z,19.40
2019-04-21T09:19:04.728Z,19.40
2019-04-21T09:21:19.464Z,19.60
2019-04-21T09:23:19.240Z,19.10
2019-04-21T09:25:38.341Z,19.40
2019-04-21T09:27:33.093Z,19.10
2019-04-21T09:29:28.718Z,19.50
2019-04-21T09:31:29.143Z,19.90
2019-04-21T09:33:34.576Z,20.00
2019-04-21T09:35:58.863Z,20.00
2019-04-21T09:38:11.338Z,20.10
2019-04-21T09:40:07.188Z,20.30
2019-04-21T09:42:11.431Z,20.10
2019-04-21T09:44:24.931Z,19.80
2019-04-21T09:46:20.890Z,19.80
2019-04-21T09:48:26.657Z,20.00
2019-04-21T09:50:30.222Z,20.10
2019-04-21T09:52:41.825Z,20.40
2019-04-21T09:54:48.259Z,20.40
2019-04-21T09:56:51.041Z,20.40
2019-04-21T09:59:14.846Z,20.00
2019-04-21T10:01:20.443Z,20.00
2019-04-21T10:03:19.789Z,20.40
2019-04-21T10:05:25.163Z,20.60
2019-04-21T10:07:34.933Z,20.60
2019-04-21T10:09:35.586Z,20.80
2019-04-21T10:11:39.394Z,20.80
2019-04-21T10:13:44.244Z,21.00
2019-04-21T10:15:49.615Z,20.90
2019-04-21T10:17:55.998Z,20.90
2019-04-21T10:20:00.769Z,20.90
2019-04-21T10:22:05.961Z,21.20
2019-04-21T10:24:10.562Z,21.40
2019-04-21T10:26:14.625Z,21.60
2019-04-21T10:28:19.086Z,21.60
2019-04-21T10:30:23.062Z,21.10
2019-04-21T10:32:28.099Z,21.10
2019-04-21T10:34:32.026Z,21.20
2019-04-21T10:36:35.723Z,21.10
2019-04-21T10:38:44.673Z,21.10
2019-04-21T10:40:45.586Z,20.60
2019-04-21T10:42:51.933Z,21.20
2019-04-21T10:44:56.889Z,21.40
2019-04-21T10:47:00.689Z,21.30
2019-04-21T10:49:04.596Z,21.30
2019-04-21T10:51:08.515Z,21.00
2019-04-21T10:53:20.742Z,21.40
2019-04-21T10:55:44.668Z,21.70
2019-04-21T10:57:33.036Z,21.70
2019-04-21T10:59:37.206Z,21.30
2019-04-21T11:01:41.225Z,21.50
2019-04-21T11:03:50.580Z,21.60
2019-04-21T11:06:08.631Z,21.60
2019-04-21T11:08:22.772Z,21.80
2019-04-21T11:10:18.318Z,22.40
2019-04-21T11:12:21.998Z,21.90
2019-04-21T11:14:25.685Z,22.40
2019-04-21T11:16:30.850Z,22.60
2019-04-21T11:18:35.957Z,22.50
2019-04-21T11:20:40.575Z,22.60
2019-04-21T11:22:44.577Z,22.30
2019-04-21T11:24:49.066Z,21.90
2019-04-21T11:26:53.819Z,21.90
2019-04-21T11:28:58.907Z,22.40
2019-04-21T11:31:02.777Z,22.30
2019-04-21T11:33:07.008Z,22.30
2019-04-21T11:35:10.931Z,21.80
2019-04-21T11:37:16.496Z,22.00
2019-04-21T11:39:35.074Z,22.00
2019-04-21T11:41:30.121Z,21.90
2019-04-21T11:43:34.976Z,22.20
2019-04-21T11:45:40.109Z,22.70
2019-04-21T11:48:02.101Z,22.80
2019-04-21T11:50:07.386Z,22.80
2019-04-21T11:52:11.433Z,22.50
2019-04-21T11:54:15.179Z,22.30
2019-04-21T11:56:19.164Z,22.30
2019-04-21T11:58:23.669Z,22.50
2019-04-21T12:00:27.438Z,22.90
2019-04-21T12:02:31.173Z,23.20
2019-04-21T12:04:35.750Z,23.00
2019-04-21T12:06:44.503Z,23.20
2019-04-21T12:08:49.381Z,22.70
2019-04-21T12:10:51.524Z,21.70
2019-04-21T12:12:55.270Z,22.10
2019-04-21T12:14:59.900Z,22.10
2019-04-21T12:17:03.752Z,22.50
2019-04-21T12:19:07.453Z,22.80
2019-04-21T12:21:11.489Z,22.50
2019-04-21T12:23:16.344Z,22.60
2019-04-21T12:25:22.934Z,23.00
2019-04-21T12:27:27.791Z,22.60
2019-04-21T12:29:31.571Z,22.80
2019-04-21T12:31:36.838Z,23.20
2019-04-21T12:33:48.042Z,23.30
2019-04-21T12:35:51.701Z,22.90
2019-04-21T12:37:56.401Z,22.70
2019-04-21T12:40:00.810Z,22.90
2019-04-21T12:42:04.778Z,23.00
2019-04-21T12:44:08.848Z,23.10
2019-04-21T12:46:13.963Z,23.50
2019-04-21T12:48:18.110Z,23.40
2019-04-21T12:50:21.968Z,22.40
2019-04-21T12:52:25.727Z,23.10
2019-04-21T12:54:29.876Z,23.10
2019-04-21T12:56:33.695Z,23.20
2019-04-21T12:58:37.494Z,23.50
2019-04-21T13:00:42.904Z,23.50
2019-04-21T13:02:47.739Z,23.50
2019-04-21T13:04:52.998Z,23.50
2019-04-21T13:06:57.348Z,23.60
2019-04-21T13:09:05.245Z,23.60
2019-04-21T13:11:09.343Z,23.30
2019-04-21T13:13:12.293Z,23.40
2019-04-21T13:15:17.854Z,23.00
2019-04-21T13:17:21.586Z,23.00
2019-04-21T13:19:25.312Z,23.30
2019-04-21T13:21:29.938Z,23.40
2019-04-21T13:23:34.909Z,23.60
2019-04-21T13:25:38.847Z,23.80
2019-04-21T13:27:43.045Z,23.60
2019-04-21T13:29:48.208Z,23.50
2019-04-21T13:31:52.209Z,23.60
2019-04-21T13:33:55.955Z,23.30
2019-04-21T13:35:59.774Z,22.70
2019-04-21T13:38:04.640Z,22.80
2019-04-21T13:40:38.839Z,23.50
2019-04-21T13:42:28.133Z,23.70
2019-04-21T13:44:26.797Z,23.70
2019-04-21T13:46:31.824Z,23.90
2019-04-21T13:48:36.765Z,23.80
2019-04-21T13:50:41.426Z,23.70
2019-04-21T13:52:45.239Z,23.90
2019-04-21T13:54:49.619Z,24.00
2019-04-21T13:56:54.398Z,23.80
2019-04-21T13:58:58.504Z,23.20
2019-04-21T14:01:03.394Z,23.50
2019-04-21T14:03:07.433Z,24.00
2019-04-21T14:05:13.770Z,23.90
2019-04-21T14:07:18.321Z,24.20
2019-04-21T14:09:33.858Z,23.70
2019-04-21T14:11:27.629Z,24.00
2019-04-21T14:13:32.253Z,24.10
2019-04-21T14:15:36.053Z,24.00
2019-04-21T14:17:39.742Z,24.10
2019-04-21T14:19:43.563Z,24.40
2019-04-21T14:21:49.859Z,24.30
2019-04-21T14:23:54.283Z,23.10
2019-04-21T14:25:59.578Z,23.20
2019-04-21T14:28:04.038Z,23.30
2019-04-21T14:30:10.412Z,23.60
2019-04-21T14:32:14.242Z,24.20
2019-04-21T14:34:17.946Z,24.40
2019-04-21T14:36:22.995Z,24.40
2019-04-21T14:38:26.877Z,24.50
2019-04-21T14:40:33.213Z,24.50
2019-04-21T14:42:36.106Z,24.10
2019-04-21T14:44:40.812Z,24.20
2019-04-21T14:46:55.297Z,23.90
2019-04-21T14:49:06.919Z,23.90
2019-04-21T14:51:29.383Z,23.60
2019-04-21T14:53:35.915Z,24.10
2019-04-21T14:55:41.688Z,24.30
2019-04-21T14:57:45.451Z,24.30
2019-04-21T14:59:49.129Z,24.40
2019-04-21T15:01:53.650Z,24.20
2019-04-21T15:03:57.580Z,24.10
2019-04-21T15:06:01.252Z,24.40
2019-04-21T15:08:04.916Z,24.60
2019-04-21T15:10:17.045Z,24.60
2019-04-21T15:12:16.247Z,23.60
2019-04-21T15:14:20.135Z,23.30
2019-04-21T15:16:24.973Z,23.30
2019-04-21T15:18:28.863Z,24.00
2019-04-21T15:20:32.547Z,24.30
2019-04-21T15:22:36.465Z,24.60
2019-04-21T15:24:40.478Z,24.90
2019-04-21T15:26:44.385Z,24.80
2019-04-21T15:28:48.828Z,24.40
2019-04-21T15:30:52.696Z,24.50
2019-04-21T15:32:56.360Z,24.60
2019-04-21T15:35:00.391Z,24.60
2019-04-21T15:37:05.899Z,24.30
2019-04-21T15:39:10.071Z,24.30
2019-04-21T15:41:14.474Z,24.20
2019-04-21T15:43:18.325Z,24.30
2019-04-21T15:45:22.030Z,24.70
2019-04-21T15:47:26.236Z,24.80
2019-04-21T15:49:43.024Z,24.60
2019-04-21T15:51:38.000Z,24.50
2019-04-21T15:53:43.867Z,24.60
2019-04-21T15:55:52.862Z,24.50
2019-04-21T15:58:00.991Z,23.90
2019-04-21T16:00:16.637Z,24.40
2019-04-21T16:02:40.390Z,24.70
2019-04-21T16:04:44.315Z,24.80
2019-04-21T16:06:48.135Z,24.80
2019-04-21T16:08:54.180Z,24.90
2019-04-21T16:11:00.733Z,24.90
2019-04-21T16:13:03.464Z,24.60
2019-04-21T16:15:08.513Z,24.10
2019-04-21T16:17:12.226Z,24.30
2019-04-21T16:19:16.435Z,24.60
2019-04-21T16:21:21.963Z,24.30
2019-04-21T16:23:26.613Z,24.60
2019-04-21T16:25:30.640Z,24.60
2019-04-21T16:27:35.181Z,24.60
2019-04-21T16:29:39.515Z,24.50
2019-04-21T16:31:43.379Z,24.80
2019-04-21T16:33:47.182Z,25.00
2019-04-21T16:35:51.691Z,24.80
2019-04-21T16:37:57.269Z,24.80
2019-04-21T16:40:01.318Z,24.50
2019-04-21T16:42:08.282Z,24.30
2019-04-21T16:44:11.336Z,24.40
2019-04-21T16:46:15.806Z,24.80
2019-04-21T16:48:21.100Z,25.10
2019-04-21T16:50:25.724Z,24.80
2019-04-21T16:52:32.145Z,24.90
2019-04-21T16:54:35.974Z,24.40
2019-04-21T16:56:41.762Z,24.50
2019-04-21T16:58:50.512Z,24.80
2019-04-21T17:01:03.292Z,24.20
2019-04-21T17:03:04.347Z,24.50
2019-04-21T17:05:09.974Z,24.50
2019-04-21T17:07:14.978Z,24.70
2019-04-21T17:09:18.884Z,24.80
2019-04-21T17:11:27.343Z,24.60
2019-04-21T17:13:29.566Z,24.60
2019-04-21T17:15:51.492Z,24.40
2019-04-21T17:18:00.416Z,24.10
2019-04-21T17:19:47.617Z,24.00
2019-04-21T17:21:49.881Z,24.40
2019-04-21T17:23:54.602Z,24.20
2019-04-21T17:25:59.201Z,23.80
2019-04-21T17:28:03.582Z,23.90
2019-04-21T17:30:08.670Z,23.90
2019-04-21T17:32:12.417Z,24.20
2019-04-21T17:34:20.081Z,24.10
2019-04-21T17:36:21.470Z,23.70
2019-04-21T17:38:25.952Z,23.80
2019-04-21T17:40:30.117Z,23.80
2019-04-21T17:42:43.252Z,23.80
2019-04-21T17:44:39.409Z,24.00
2019-04-21T17:46:49.783Z,24.10
2019-04-21T17:48:49.247Z,24.00
2019-04-21T17:50:55.660Z,24.00
2019-04-21T17:53:08.756Z,23.30
2019-04-21T17:55:25.041Z,23.30
2019-04-21T17:57:46.715Z,23.20
2019-04-21T17:59:56.261Z,23.40
2019-04-21T18:01:54.664Z,23.50
2019-04-21T18:04:06.219Z,23.60
2019-04-21T18:06:01.001Z,23.60
2019-04-21T18:08:17.335Z,23.60
2019-04-21T18:10:11.435Z,23.60
2019-04-21T18:12:18.002Z,23.50
2019-04-21T18:14:09.424Z,23.60
2019-04-21T18:16:22.990Z,23.50
2019-04-21T18:18:18.742Z,23.50
2019-04-21T18:20:24.079Z,23.50
2019-04-21T18:22:37.466Z,23.30
2019-04-21T18:24:47.963Z,23.40
2019-04-21T18:26:52.119Z,23.30
2019-04-21T18:28:53.835Z,23.20
2019-04-21T18:30:58.384Z,23.10
2019-04-21T18:33:05.853Z,23.00
2019-04-21T18:35:14.134Z,22.90
2019-04-21T18:37:40.856Z,22.90
2019-04-21T18:39:53.661Z,22.80
2019-04-21T18:42:06.498Z,22.60
2019-04-21T18:44:28.049Z,22.50
2019-04-21T18:46:25.947Z,22.40
2019-04-21T18:48:34.885Z,22.30
2019-04-21T18:50:46.299Z,22.30
2019-04-21T18:52:56.367Z,22.20
2019-04-21T18:55:01.598Z,22.10
2019-04-21T18:57:06.799Z,22.00
2019-04-21T18:58:58.511Z,21.90
2019-04-21T19:01:07.329Z,21.80
2019-04-21T19:03:10.448Z,21.80
2019-04-21T19:05:15.980Z,21.70
2019-04-21T19:07:37.577Z,21.50
2019-04-21T19:10:07.068Z,21.40
2019-04-21T19:11:49.834Z,21.40
2019-04-21T19:14:19.614Z,21.30
2019-04-21T19:16:28.402Z,21.20
2019-04-21T19:20:31.430Z,20.80
2019-04-21T19:22:34.467Z,20.90
2019-04-21T19:24:41.284Z,20.80
2019-04-21T19:26:55.614Z,20.80
2019-04-21T19:28:52.237Z,20.70
2019-04-21T19:30:56.437Z,20.70
2019-04-21T19:32:58.079Z,20.50
2019-04-21T19:34:49.315Z,20.40
2019-04-21T19:36:59.525Z,20.10
2019-04-21T19:39:07.112Z,20.10
2019-04-21T19:41:21.901Z,20.10
2019-04-21T19:43:32.660Z,20.00
2019-04-21T19:45:27.738Z,20.00
2019-04-21T19:47:39.464Z,20.00
2019-04-21T19:49:45.702Z,19.90
2019-04-21T19:51:42.845Z,19.80
2019-04-21T19:53:49.326Z,19.70
2019-04-21T19:55:42.323Z,19.70
2019-04-21T19:57:47.062Z,19.50
2019-04-21T19:59:55.272Z,19.30
2019-04-21T20:01:56.338Z,19.20
2019-04-21T20:04:01.059Z,19.20
2019-04-21T20:06:16.908Z,19.10
2019-04-21T20:08:23.397Z,19.00
2019-04-21T20:10:44.324Z,18.80
2019-04-21T20:12:39.771Z,18.70
2019-04-21T20:15:08.501Z,18.70
2019-04-21T20:16:51.748Z,18.80
2019-04-21T20:18:44.103Z,18.70
2019-04-21T20:20:43.886Z,18.60
2019-04-21T20:22:51.655Z,18.40
2019-04-21T20:25:00.176Z,18.30
2019-04-21T20:27:06.824Z,18.10
2019-04-21T20:29:22.072Z,18.00
2019-04-21T20:31:23.882Z,18.00
2019-04-21T20:35:48.631Z,17.70
2019-04-21T20:37:45.673Z,17.70
2019-04-21T20:39:45.260Z,17.60
2019-04-21T20:41:46.826Z,17.50
2019-04-21T20:44:00.860Z,17.40
2019-04-21T20:46:07.844Z,17.40
2019-04-21T20:47:55.706Z,17.40
2019-04-21T20:50:14.038Z,17.30
2019-04-21T20:52:22.393Z,17.20
2019-04-21T20:54:24.507Z,17.10
2019-04-21T20:56:27.651Z,16.90
2019-04-21T20:58:34.239Z,16.80
2019-04-21T21:00:54.653Z,16.70
2019-04-21T21:02:50.793Z,16.60
2019-04-21T21:04:45.612Z,16.70
2019-04-21T21:07:01.664Z,16.70
2019-04-21T21:09:06.164Z,16.80
2019-04-21T21:11:06.802Z,16.80
2019-04-21T21:15:23.858Z,16.80
2019-04-21T21:19:40.118Z,16.60
2019-04-21T21:21:43.136Z,16.60
2019-04-21T21:23:51.285Z,16.50
2019-04-21T21:25:54.496Z,16.40
2019-04-21T21:27:53.297Z,16.40
2019-04-21T21:30:04.751Z,16.40
2019-04-21T21:32:16.659Z,16.40
2019-04-21T21:34:16.691Z,16.50
2019-04-21T21:36:20.859Z,16.50
2019-04-21T21:38:28.089Z,16.40
2019-04-21T21:40:30.607Z,16.50
2019-04-21T21:42:27.507Z,16.30
2019-04-21T21:44:28.042Z,16.20
2019-04-21T21:46:44.561Z,16.10
2019-04-21T21:48:46.045Z,16.00
2019-04-21T21:50:50.890Z,15.80
2019-04-21T21:52:58.913Z,15.70
2019-04-21T21:54:53.791Z,15.80
2019-04-21T21:56:58.638Z,15.70
2019-04-21T21:59:10.590Z,15.70
2019-04-21T22:01:11.775Z,15.80
2019-04-21T22:03:23.321Z,15.90
2019-04-21T22:05:25.433Z,16.00
2019-04-21T22:07:31.029Z,15.90
2019-04-21T22:09:32.384Z,15.80
2019-04-21T22:11:36.181Z,15.70
2019-04-21T22:13:48.441Z,15.70
2019-04-21T22:15:49.407Z,15.60
2019-04-21T22:18:09.087Z,15.70
2019-04-21T22:20:17.159Z,15.70
2019-04-21T22:22:17.928Z,15.50
2019-04-21T22:24:20.292Z,15.50
2019-04-21T22:26:13.466Z,15.40
2019-04-21T22:28:17.791Z,15.30
2019-04-21T22:30:29.917Z,15.40
2019-04-21T22:32:29.449Z,14.60
2019-04-21T22:34:42.405Z,15.30
2019-04-21T22:36:48.864Z,15.30
2019-04-21T22:39:07.447Z,15.10
2019-04-21T22:41:00.173Z,15.00
2019-04-21T22:43:04.439Z,15.10
2019-04-21T22:45:00.812Z,15.10
2019-04-21T22:47:13.415Z,15.10
2019-04-21T22:49:12.581Z,15.20
2019-04-21T22:51:23.717Z,15.20
2019-04-21T22:53:21.426Z,15.10
2019-04-21T22:55:30.903Z,15.00
2019-04-21T22:57:37.818Z,15.00
2019-04-21T22:59:37.303Z,14.80
2019-04-21T23:01:46.105Z,14.70
2019-04-21T23:03:50.635Z,14.60
2019-04-21T23:05:53.596Z,14.70
2019-04-21T23:08:01.976Z,14.70
2019-04-21T23:10:03.645Z,14.50
2019-04-21T23:12:08.050Z,14.30
2019-04-21T23:14:15.212Z,14.30
2019-04-21T23:16:21.460Z,14.20
2019-04-21T23:18:36.270Z,14.30
2019-04-21T23:20:51.770Z,14.40
2019-04-21T23:23:00.726Z,14.50
2019-04-21T23:24:59.319Z,14.40
2019-04-21T23:26:57.457Z,14.30
2019-04-21T23:29:09.034Z,14.20
2019-04-21T23:31:18.675Z,14.30
2019-04-21T23:33:06.570Z,14.20
2019-04-21T23:35:14.366Z,14.30
2019-04-21T23:37:16.640Z,14.30
2019-04-21T23:39:23.729Z,14.30
2019-04-21T23:41:26.076Z,14.30
2019-04-21T23:43:32.739Z,14.20
2019-04-21T23:45:39.257Z,14.10
2019-04-21T23:47:53.092Z,14.10
2019-04-21T23:49:57.645Z,14.20
2019-04-21T23:52:00.276Z,14.20
2019-04-21T23:53:59.484Z,14.20
2019-04-21T23:56:03.472Z,14.20
2019-04-21T23:58:13.440Z,14.10
